sensor_id;sensor_type;location;lat;lon;timestamp;pressure;altitude;pressure_sealevel;temperature;humidity
36980;BME280;22891;50.562;7.272;2022-07-29T00:00:10;100856.00;;;18.55;nan
36980;BME280;22891;50.562;7.272;2022-07-29T00:02:36;100846.00;;;18.34;nan
36980;BME280;22891;50.562;7.272;2022-07-29T00:05:03;100841.00;;;18.28;nan
36980;BME280;22891;50.562;7.272;2022-07-29T00:07:30;100847.00;;;18.28;nan
36980;BME280;22891;50.562;7.272;2022-07-29T00:09:56;100846.00;;;18.41;nan
36980;BME280;22891;50.562;7.272;2022-07-29T00:12:24;100847.00;;;18.28;nan
36980;BME280;22891;50.562;7.272;2022-07-29T00:14:53;100831.00;;;18.25;nan
36980;BME280;22891;50.562;7.272;2022-07-29T00:17:19;100830.00;;;18.24;nan
36980;BME280;22891;50.562;7.272;2022-07-29T00:19:44;100819.00;;;18.08;nan
36980;BME280;22891;50.562;7.272;2022-07-29T00:22:10;100822.00;;;17.89;nan
36980;BME280;22891;50.562;7.272;2022-07-29T00:24:36;100811.00;;;17.81;nan
36980;BME280;22891;50.562;7.272;2022-07-29T00:27:03;100808.00;;;17.80;nan
36980;BME280;22891;50.562;7.272;2022-07-29T00:29:29;100797.00;;;17.75;nan
36980;BME280;22891;50.562;7.272;2022-07-29T00:31:55;100811.00;;;17.85;nan
36980;BME280;22891;50.562;7.272;2022-07-29T00:34:21;100793.00;;;17.73;nan
36980;BME280;22891;50.562;7.272;2022-07-29T00:37:05;100811.00;;;17.63;nan
36980;BME280;22891;50.562;7.272;2022-07-29T00:39:31;100803.00;;;17.45;nan
36980;BME280;22891;50.562;7.272;2022-07-29T00:41:57;100805.00;;;17.41;nan
36980;BME280;22891;50.562;7.272;2022-07-29T00:44:22;100792.00;;;17.43;nan
36980;BME280;22891;50.562;7.272;2022-07-29T00:46:48;100764.00;;;17.46;nan
36980;BME280;22891;50.562;7.272;2022-07-29T00:49:14;100754.00;;;17.49;nan
36980;BME280;22891;50.562;7.272;2022-07-29T00:51:41;100751.00;;;17.52;nan
36980;BME280;22891;50.562;7.272;2022-07-29T00:54:07;100746.00;;;17.49;nan
36980;BME280;22891;50.562;7.272;2022-07-29T00:56:33;100739.00;;;17.51;nan
36980;BME280;22891;50.562;7.272;2022-07-29T00:59:00;100727.00;;;17.46;nan
36980;BME280;22891;50.562;7.272;2022-07-29T01:01:26;100722.00;;;17.43;nan
36980;BME280;22891;50.562;7.272;2022-07-29T01:03:53;100738.00;;;17.55;nan
36980;BME280;22891;50.562;7.272;2022-07-29T01:06:19;100738.00;;;17.64;nan
36980;BME280;22891;50.562;7.272;2022-07-29T01:08:47;100736.00;;;17.75;nan
36980;BME280;22891;50.562;7.272;2022-07-29T01:11:15;100723.00;;;17.67;nan
36980;BME280;22891;50.562;7.272;2022-07-29T01:13:43;100733.00;;;17.62;nan
36980;BME280;22891;50.562;7.272;2022-07-29T01:16:30;100725.00;;;17.61;nan
36980;BME280;22891;50.562;7.272;2022-07-29T01:19:22;100730.00;;;17.68;nan
36980;BME280;22891;50.562;7.272;2022-07-29T01:21:59;100740.00;;;17.63;nan
36980;BME280;22891;50.562;7.272;2022-07-29T01:25:02;100740.00;;;17.69;nan
36980;BME280;22891;50.562;7.272;2022-07-29T01:32:20;100757.00;;;17.51;nan
36980;BME280;22891;50.562;7.272;2022-07-29T01:34:52;100711.00;;;17.18;nan
36980;BME280;22891;50.562;7.272;2022-07-29T01:40:14;100683.00;;;16.93;nan
36980;BME280;22891;50.562;7.272;2022-07-29T01:42:55;100680.00;;;17.07;nan
36980;BME280;22891;50.562;7.272;2022-07-29T01:45:53;100686.00;;;17.19;nan
36980;BME280;22891;50.562;7.272;2022-07-29T01:48:24;100692.00;;;17.24;nan
36980;BME280;22891;50.562;7.272;2022-07-29T01:50:58;100688.00;;;17.05;nan
36980;BME280;22891;50.562;7.272;2022-07-29T01:53:53;100696.00;;;16.98;nan
36980;BME280;22891;50.562;7.272;2022-07-29T01:58:48;100656.00;;;16.70;nan
36980;BME280;22891;50.562;7.272;2022-07-29T02:01:16;100647.00;;;16.51;nan
36980;BME280;22891;50.562;7.272;2022-07-29T02:03:45;100630.00;;;16.54;nan
36980;BME280;22891;50.562;7.272;2022-07-29T02:06:12;100651.00;;;16.54;nan
36980;BME280;22891;50.562;7.272;2022-07-29T02:08:42;100646.00;;;16.32;nan
36980;BME280;22891;50.562;7.272;2022-07-29T02:11:09;100634.00;;;16.18;nan
36980;BME280;22891;50.562;7.272;2022-07-29T02:13:35;100619.00;;;16.15;nan
36980;BME280;22891;50.562;7.272;2022-07-29T02:16:04;100603.00;;;16.15;nan
36980;BME280;22891;50.562;7.272;2022-07-29T02:18:32;100605.00;;;16.20;nan
36980;BME280;22891;50.562;7.272;2022-07-29T02:20:59;100599.00;;;16.10;nan
36980;BME280;22891;50.562;7.272;2022-07-29T02:23:26;100592.00;;;16.17;nan
36980;BME280;22891;50.562;7.272;2022-07-29T02:25:55;100590.00;;;16.24;nan
36980;BME280;22891;50.562;7.272;2022-07-29T02:28:24;100596.00;;;16.33;nan
36980;BME280;22891;50.562;7.272;2022-07-29T02:30:53;100615.00;;;16.45;nan
36980;BME280;22891;50.562;7.272;2022-07-29T02:33:21;100611.00;;;16.30;nan
36980;BME280;22891;50.562;7.272;2022-07-29T02:35:50;100605.00;;;16.18;nan
36980;BME280;22891;50.562;7.272;2022-07-29T02:38:16;100599.00;;;16.16;nan
36980;BME280;22891;50.562;7.272;2022-07-29T02:41:11;100591.00;;;16.02;nan
36980;BME280;22891;50.562;7.272;2022-07-29T02:43:38;100592.00;;;15.92;nan
36980;BME280;22891;50.562;7.272;2022-07-29T02:46:05;100583.00;;;15.81;nan
36980;BME280;22891;50.562;7.272;2022-07-29T02:48:39;100576.00;;;15.83;nan
36980;BME280;22891;50.562;7.272;2022-07-29T02:51:18;100560.00;;;15.98;nan
36980;BME280;22891;50.562;7.272;2022-07-29T02:53:48;100571.00;;;15.97;nan
36980;BME280;22891;50.562;7.272;2022-07-29T02:56:20;100589.00;;;16.08;nan
36980;BME280;22891;50.562;7.272;2022-07-29T02:58:55;100578.00;;;16.03;nan
36980;BME280;22891;50.562;7.272;2022-07-29T03:01:23;100579.00;;;15.97;nan
36980;BME280;22891;50.562;7.272;2022-07-29T03:03:53;100558.00;;;15.66;nan
36980;BME280;22891;50.562;7.272;2022-07-29T03:06:22;100533.00;;;15.46;nan
36980;BME280;22891;50.562;7.272;2022-07-29T03:08:49;100525.00;;;15.55;nan
36980;BME280;22891;50.562;7.272;2022-07-29T03:11:17;100525.00;;;15.46;nan
36980;BME280;22891;50.562;7.272;2022-07-29T03:13:44;100537.00;;;15.59;nan
36980;BME280;22891;50.562;7.272;2022-07-29T03:16:11;100558.00;;;15.85;nan
36980;BME280;22891;50.562;7.272;2022-07-29T03:18:38;100567.00;;;15.75;nan
36980;BME280;22891;50.562;7.272;2022-07-29T03:21:05;100565.00;;;15.86;nan
36980;BME280;22891;50.562;7.272;2022-07-29T03:23:31;100576.00;;;15.73;nan
36980;BME280;22891;50.562;7.272;2022-07-29T03:25:57;100573.00;;;15.65;nan
36980;BME280;22891;50.562;7.272;2022-07-29T03:28:25;100552.00;;;15.42;nan
36980;BME280;22891;50.562;7.272;2022-07-29T03:30:53;100533.00;;;15.37;nan
36980;BME280;22891;50.562;7.272;2022-07-29T03:33:19;100505.00;;;15.29;nan
36980;BME280;22891;50.562;7.272;2022-07-29T03:35:45;100518.00;;;15.44;nan
36980;BME280;22891;50.562;7.272;2022-07-29T03:38:11;100539.00;;;15.44;nan
36980;BME280;22891;50.562;7.272;2022-07-29T03:40:42;100559.00;;;15.56;nan
36980;BME280;22891;50.562;7.272;2022-07-29T03:43:11;100569.00;;;15.53;nan
36980;BME280;22891;50.562;7.272;2022-07-29T03:45:38;100554.00;;;15.43;nan
36980;BME280;22891;50.562;7.272;2022-07-29T03:48:11;100552.00;;;15.52;nan
36980;BME280;22891;50.562;7.272;2022-07-29T03:50:38;100556.00;;;15.31;nan
36980;BME280;22891;50.562;7.272;2022-07-29T03:53:04;100584.00;;;15.55;nan
36980;BME280;22891;50.562;7.272;2022-07-29T03:55:36;100597.00;;;15.38;nan
36980;BME280;22891;50.562;7.272;2022-07-29T03:58:04;100603.00;;;15.38;nan
36980;BME280;22891;50.562;7.272;2022-07-29T04:00:32;100606.00;;;15.43;nan
36980;BME280;22891;50.562;7.272;2022-07-29T04:02:59;100608.00;;;15.44;nan
36980;BME280;22891;50.562;7.272;2022-07-29T04:05:26;100606.00;;;15.50;nan
36980;BME280;22891;50.562;7.272;2022-07-29T04:07:52;100593.00;;;15.14;nan
36980;BME280;22891;50.562;7.272;2022-07-29T04:10:18;100583.00;;;15.19;nan
36980;BME280;22891;50.562;7.272;2022-07-29T04:12:48;100575.00;;;15.18;nan
36980;BME280;22891;50.562;7.272;2022-07-29T04:15:15;100577.00;;;15.22;nan
36980;BME280;22891;50.562;7.272;2022-07-29T04:17:41;100597.00;;;15.25;nan
36980;BME280;22891;50.562;7.272;2022-07-29T04:20:09;100596.00;;;15.11;nan
36980;BME280;22891;50.562;7.272;2022-07-29T04:22:39;100582.00;;;15.11;nan
36980;BME280;22891;50.562;7.272;2022-07-29T04:25:06;100581.00;;;15.21;nan
36980;BME280;22891;50.562;7.272;2022-07-29T04:27:31;100600.00;;;15.26;nan
36980;BME280;22891;50.562;7.272;2022-07-29T04:29:57;100583.00;;;15.15;nan
36980;BME280;22891;50.562;7.272;2022-07-29T04:32:26;100578.00;;;15.16;nan
36980;BME280;22891;50.562;7.272;2022-07-29T04:34:52;100607.00;;;15.37;nan
36980;BME280;22891;50.562;7.272;2022-07-29T04:37:18;100603.00;;;15.25;nan
36980;BME280;22891;50.562;7.272;2022-07-29T04:39:44;100578.00;;;15.04;nan
36980;BME280;22891;50.562;7.272;2022-07-29T04:42:10;100564.00;;;14.85;nan
36980;BME280;22891;50.562;7.272;2022-07-29T04:44:36;100557.00;;;14.78;nan
36980;BME280;22891;50.562;7.272;2022-07-29T04:47:02;100546.00;;;14.75;nan
36980;BME280;22891;50.562;7.272;2022-07-29T04:49:28;100548.00;;;14.79;nan
36980;BME280;22891;50.562;7.272;2022-07-29T04:51:54;100550.00;;;14.93;nan
36980;BME280;22891;50.562;7.272;2022-07-29T04:54:20;100549.00;;;15.16;nan
36980;BME280;22891;50.562;7.272;2022-07-29T04:56:46;100565.00;;;15.34;nan
36980;BME280;22891;50.562;7.272;2022-07-29T04:59:11;100586.00;;;15.65;nan
36980;BME280;22891;50.562;7.272;2022-07-29T05:01:38;100602.00;;;15.67;nan
36980;BME280;22891;50.562;7.272;2022-07-29T05:04:04;100614.00;;;16.09;nan
36980;BME280;22891;50.562;7.272;2022-07-29T05:06:29;100636.00;;;16.22;nan
36980;BME280;22891;50.562;7.272;2022-07-29T05:08:55;100663.00;;;16.24;nan
36980;BME280;22891;50.562;7.272;2022-07-29T05:11:20;100665.00;;;16.27;nan
36980;BME280;22891;50.562;7.272;2022-07-29T05:13:48;100679.00;;;16.45;nan
36980;BME280;22891;50.562;7.272;2022-07-29T05:16:14;100674.00;;;16.32;nan
36980;BME280;22891;50.562;7.272;2022-07-29T05:18:41;100690.00;;;16.46;nan
36980;BME280;22891;50.562;7.272;2022-07-29T05:21:07;100717.00;;;16.62;nan
36980;BME280;22891;50.562;7.272;2022-07-29T05:23:33;100723.00;;;16.76;nan
36980;BME280;22891;50.562;7.272;2022-07-29T05:25:59;100719.00;;;16.83;nan
36980;BME280;22891;50.562;7.272;2022-07-29T05:28:24;100702.00;;;16.71;nan
36980;BME280;22891;50.562;7.272;2022-07-29T05:30:50;100713.00;;;16.79;nan
36980;BME280;22891;50.562;7.272;2022-07-29T05:33:16;100727.00;;;16.52;nan
36980;BME280;22891;50.562;7.272;2022-07-29T05:35:41;100743.00;;;16.75;nan
36980;BME280;22891;50.562;7.272;2022-07-29T05:38:07;100733.00;;;16.72;nan
36980;BME280;22891;50.562;7.272;2022-07-29T05:40:34;100737.00;;;16.81;nan
36980;BME280;22891;50.562;7.272;2022-07-29T05:42:59;100735.00;;;16.73;nan
36980;BME280;22891;50.562;7.272;2022-07-29T05:45:25;100750.00;;;16.66;nan
36980;BME280;22891;50.562;7.272;2022-07-29T05:47:51;100730.00;;;16.54;nan
36980;BME280;22891;50.562;7.272;2022-07-29T05:50:17;100735.00;;;16.62;nan
36980;BME280;22891;50.562;7.272;2022-07-29T05:52:42;100730.00;;;16.60;nan
36980;BME280;22891;50.562;7.272;2022-07-29T05:55:08;100744.00;;;16.56;nan
36980;BME280;22891;50.562;7.272;2022-07-29T05:57:34;100757.00;;;16.68;nan
36980;BME280;22891;50.562;7.272;2022-07-29T06:00:00;100771.00;;;16.87;nan
36980;BME280;22891;50.562;7.272;2022-07-29T06:02:26;100785.00;;;17.03;nan
36980;BME280;22891;50.562;7.272;2022-07-29T06:04:52;100820.00;;;17.20;nan
36980;BME280;22891;50.562;7.272;2022-07-29T06:07:17;100842.00;;;17.32;nan
36980;BME280;22891;50.562;7.272;2022-07-29T06:09:43;100835.00;;;17.40;nan
36980;BME280;22891;50.562;7.272;2022-07-29T06:12:10;100847.00;;;17.28;nan
36980;BME280;22891;50.562;7.272;2022-07-29T06:14:37;100826.00;;;17.31;nan
36980;BME280;22891;50.562;7.272;2022-07-29T06:17:04;100832.00;;;17.64;nan
36980;BME280;22891;50.562;7.272;2022-07-29T06:19:33;100887.00;;;18.46;nan
36980;BME280;22891;50.562;7.272;2022-07-29T06:21:59;100916.00;;;18.87;nan
36980;BME280;22891;50.562;7.272;2022-07-29T06:24:24;100933.00;;;18.74;nan
36980;BME280;22891;50.562;7.272;2022-07-29T06:26:50;100937.00;;;19.02;nan
36980;BME280;22891;50.562;7.272;2022-07-29T06:29:16;100940.00;;;19.24;nan
36980;BME280;22891;50.562;7.272;2022-07-29T06:31:42;100963.00;;;19.65;nan
36980;BME280;22891;50.562;7.272;2022-07-29T06:34:08;100969.00;;;19.83;nan
36980;BME280;22891;50.562;7.272;2022-07-29T06:36:35;100964.00;;;19.90;nan
36980;BME280;22891;50.562;7.272;2022-07-29T06:39:05;100980.00;;;20.11;nan
36980;BME280;22891;50.562;7.272;2022-07-29T06:41:32;100973.00;;;19.97;nan
36980;BME280;22891;50.562;7.272;2022-07-29T06:43:58;100979.00;;;20.18;nan
36980;BME280;22891;50.562;7.272;2022-07-29T06:46:25;100976.00;;;20.12;nan
36980;BME280;22891;50.562;7.272;2022-07-29T06:48:51;100990.00;;;20.48;nan
36980;BME280;22891;50.562;7.272;2022-07-29T06:51:18;100988.00;;;20.34;nan
36980;BME280;22891;50.562;7.272;2022-07-29T06:53:44;100992.00;;;20.97;nan
36980;BME280;22891;50.562;7.272;2022-07-29T06:56:10;101005.00;;;20.89;nan
36980;BME280;22891;50.562;7.272;2022-07-29T06:58:38;101001.00;;;20.84;nan
36980;BME280;22891;50.562;7.272;2022-07-29T07:01:05;101007.00;;;20.84;nan
36980;BME280;22891;50.562;7.272;2022-07-29T07:03:31;101003.00;;;21.05;nan
36980;BME280;22891;50.562;7.272;2022-07-29T07:05:58;101019.00;;;21.09;nan
36980;BME280;22891;50.562;7.272;2022-07-29T07:08:24;101019.00;;;20.98;nan
36980;BME280;22891;50.562;7.272;2022-07-29T07:10:50;101025.00;;;21.05;nan
36980;BME280;22891;50.562;7.272;2022-07-29T07:13:16;101014.00;;;21.30;nan
36980;BME280;22891;50.562;7.272;2022-07-29T07:15:45;101023.00;;;21.43;nan
36980;BME280;22891;50.562;7.272;2022-07-29T07:18:13;101011.00;;;21.26;nan
36980;BME280;22891;50.562;7.272;2022-07-29T07:20:39;101015.00;;;21.43;nan
36980;BME280;22891;50.562;7.272;2022-07-29T07:23:05;101016.00;;;21.87;nan
36980;BME280;22891;50.562;7.272;2022-07-29T07:25:31;101017.00;;;22.08;nan
36980;BME280;22891;50.562;7.272;2022-07-29T07:27:57;101017.00;;;21.66;nan
36980;BME280;22891;50.562;7.272;2022-07-29T07:30:26;101020.00;;;21.83;nan
36980;BME280;22891;50.562;7.272;2022-07-29T07:32:52;101009.00;;;21.66;nan
36980;BME280;22891;50.562;7.272;2022-07-29T07:35:18;101019.00;;;21.89;nan
36980;BME280;22891;50.562;7.272;2022-07-29T07:37:45;101018.00;;;22.40;nan
36980;BME280;22891;50.562;7.272;2022-07-29T07:40:12;101024.00;;;23.09;nan
36980;BME280;22891;50.562;7.272;2022-07-29T07:42:39;101024.00;;;23.48;nan
36980;BME280;22891;50.562;7.272;2022-07-29T07:45:07;101016.00;;;23.60;nan
36980;BME280;22891;50.562;7.272;2022-07-29T07:47:35;101011.00;;;24.45;nan
36980;BME280;22891;50.562;7.272;2022-07-29T07:50:03;101000.00;;;24.37;nan
36980;BME280;22891;50.562;7.272;2022-07-29T07:52:29;101011.00;;;24.65;nan
36980;BME280;22891;50.562;7.272;2022-07-29T07:54:55;101009.00;;;25.16;nan
36980;BME280;22891;50.562;7.272;2022-07-29T07:57:21;101008.00;;;24.93;nan
36980;BME280;22891;50.562;7.272;2022-07-29T07:59:46;101013.00;;;24.96;nan
36980;BME280;22891;50.562;7.272;2022-07-29T08:02:12;101006.00;;;25.54;nan
36980;BME280;22891;50.562;7.272;2022-07-29T08:04:38;101005.00;;;25.32;nan
36980;BME280;22891;50.562;7.272;2022-07-29T08:07:06;101006.00;;;25.33;nan
36980;BME280;22891;50.562;7.272;2022-07-29T08:09:33;101003.00;;;25.55;nan
36980;BME280;22891;50.562;7.272;2022-07-29T08:12:00;101014.00;;;25.52;nan
36980;BME280;22891;50.562;7.272;2022-07-29T08:14:30;100995.00;;;25.67;nan
36980;BME280;22891;50.562;7.272;2022-07-29T08:16:56;100986.00;;;25.17;nan
36980;BME280;22891;50.562;7.272;2022-07-29T08:19:22;100977.00;;;25.85;nan
36980;BME280;22891;50.562;7.272;2022-07-29T08:21:48;100984.00;;;26.13;nan
36980;BME280;22891;50.562;7.272;2022-07-29T08:24:14;100988.00;;;25.92;nan
36980;BME280;22891;50.562;7.272;2022-07-29T08:26:58;100977.00;;;25.92;nan
36980;BME280;22891;50.562;7.272;2022-07-29T08:29:24;100984.00;;;26.46;nan
36980;BME280;22891;50.562;7.272;2022-07-29T08:31:50;100988.00;;;26.58;nan
36980;BME280;22891;50.562;7.272;2022-07-29T08:34:15;100984.00;;;26.38;nan
36980;BME280;22891;50.562;7.272;2022-07-29T08:36:42;100984.00;;;27.23;nan
36980;BME280;22891;50.562;7.272;2022-07-29T08:39:08;100990.00;;;28.01;nan
36980;BME280;22891;50.562;7.272;2022-07-29T08:41:33;100988.00;;;27.60;nan
36980;BME280;22891;50.562;7.272;2022-07-29T08:44:00;100984.00;;;28.27;nan
36980;BME280;22891;50.562;7.272;2022-07-29T08:46:26;100982.00;;;26.29;nan
36980;BME280;22891;50.562;7.272;2022-07-29T08:48:52;100982.00;;;25.56;nan
36980;BME280;22891;50.562;7.272;2022-07-29T08:51:20;100981.00;;;25.73;nan
36980;BME280;22891;50.562;7.272;2022-07-29T08:53:48;100983.00;;;25.87;nan
36980;BME280;22891;50.562;7.272;2022-07-29T08:56:17;100979.00;;;26.43;nan
36980;BME280;22891;50.562;7.272;2022-07-29T08:58:47;100979.00;;;26.85;nan
36980;BME280;22891;50.562;7.272;2022-07-29T09:01:16;100978.00;;;26.44;nan
36980;BME280;22891;50.562;7.272;2022-07-29T09:03:44;100973.00;;;26.42;nan
36980;BME280;22891;50.562;7.272;2022-07-29T09:06:17;100968.00;;;28.04;nan
36980;BME280;22891;50.562;7.272;2022-07-29T09:08:44;100962.00;;;28.60;nan
36980;BME280;22891;50.562;7.272;2022-07-29T09:11:11;100956.00;;;29.40;nan
36980;BME280;22891;50.562;7.272;2022-07-29T09:13:37;100969.00;;;29.12;nan
36980;BME280;22891;50.562;7.272;2022-07-29T09:16:03;100955.00;;;29.45;nan
36980;BME280;22891;50.562;7.272;2022-07-29T09:18:44;100951.00;;;29.10;nan
36980;BME280;22891;50.562;7.272;2022-07-29T09:21:12;100942.00;;;30.07;nan
36980;BME280;22891;50.562;7.272;2022-07-29T09:24:13;100947.00;;;29.94;nan
36980;BME280;22891;50.562;7.272;2022-07-29T09:26:41;100949.00;;;28.95;nan
36980;BME280;22891;50.562;7.272;2022-07-29T09:29:13;100950.00;;;29.26;nan
36980;BME280;22891;50.562;7.272;2022-07-29T09:31:43;100953.00;;;30.14;nan
36980;BME280;22891;50.562;7.272;2022-07-29T09:34:10;100940.00;;;28.03;nan
36980;BME280;22891;50.562;7.272;2022-07-29T09:36:55;100938.00;;;29.65;nan
36980;BME280;22891;50.562;7.272;2022-07-29T09:39:33;100944.00;;;29.57;nan
36980;BME280;22891;50.562;7.272;2022-07-29T09:42:04;100932.00;;;30.48;nan
36980;BME280;22891;50.562;7.272;2022-07-29T09:44:47;100932.00;;;30.11;nan
36980;BME280;22891;50.562;7.272;2022-07-29T09:47:15;100932.00;;;29.63;nan
36980;BME280;22891;50.562;7.272;2022-07-29T09:49:56;100932.00;;;29.63;nan
36980;BME280;22891;50.562;7.272;2022-07-29T09:52:24;100937.00;;;29.14;nan
36980;BME280;22891;50.562;7.272;2022-07-29T09:54:50;100934.00;;;28.38;nan
36980;BME280;22891;50.562;7.272;2022-07-29T09:57:27;100943.00;;;28.90;nan
36980;BME280;22891;50.562;7.272;2022-07-29T10:00:05;100937.00;;;29.44;nan
36980;BME280;22891;50.562;7.272;2022-07-29T10:02:34;100931.00;;;29.37;nan
36980;BME280;22891;50.562;7.272;2022-07-29T10:05:03;100930.00;;;29.47;nan
36980;BME280;22891;50.562;7.272;2022-07-29T10:07:55;100927.00;;;29.38;nan
36980;BME280;22891;50.562;7.272;2022-07-29T10:10:28;100930.00;;;30.33;nan
36980;BME280;22891;50.562;7.272;2022-07-29T10:12:56;100928.00;;;30.38;nan
36980;BME280;22891;50.562;7.272;2022-07-29T10:15:24;100926.00;;;31.05;nan
36980;BME280;22891;50.562;7.272;2022-07-29T10:17:52;100919.00;;;31.78;nan
36980;BME280;22891;50.562;7.272;2022-07-29T10:20:19;100930.00;;;31.23;nan
36980;BME280;22891;50.562;7.272;2022-07-29T10:22:46;100922.00;;;30.51;nan
36980;BME280;22891;50.562;7.272;2022-07-29T10:25:14;100923.00;;;29.49;nan
36980;BME280;22891;50.562;7.272;2022-07-29T10:27:39;100922.00;;;29.95;nan
36980;BME280;22891;50.562;7.272;2022-07-29T10:30:06;100922.00;;;29.40;nan
36980;BME280;22891;50.562;7.272;2022-07-29T10:36:21;100913.00;;;29.36;nan
36980;BME280;22891;50.562;7.272;2022-07-29T10:46:02;100910.00;;;29.51;nan
36980;BME280;22891;50.562;7.272;2022-07-29T10:48:29;100916.00;;;30.56;nan
36980;BME280;22891;50.562;7.272;2022-07-29T10:51:03;100925.00;;;30.67;nan
36980;BME280;22891;50.562;7.272;2022-07-29T10:53:51;100914.00;;;30.56;nan
36980;BME280;22891;50.562;7.272;2022-07-29T10:56:40;100917.00;;;30.72;nan
36980;BME280;22891;50.562;7.272;2022-07-29T11:00:58;100918.00;;;30.44;nan
36980;BME280;22891;50.562;7.272;2022-07-29T11:03:54;100921.00;;;30.49;nan
36980;BME280;22891;50.562;7.272;2022-07-29T11:06:22;100917.00;;;31.05;nan
36980;BME280;22891;50.562;7.272;2022-07-29T11:09:16;100920.00;;;30.73;nan
36980;BME280;22891;50.562;7.272;2022-07-29T11:11:44;100913.00;;;31.24;nan
36980;BME280;22891;50.562;7.272;2022-07-29T11:14:10;100912.00;;;30.82;nan
36980;BME280;22891;50.562;7.272;2022-07-29T11:17:05;100912.00;;;31.28;nan
36980;BME280;22891;50.562;7.272;2022-07-29T11:27:08;100908.00;;;31.66;nan
36980;BME280;22891;50.562;7.272;2022-07-29T11:29:48;100908.00;;;31.66;nan
36980;BME280;22891;50.562;7.272;2022-07-29T11:39:47;100898.00;;;32.33;nan
36980;BME280;22891;50.562;7.272;2022-07-29T11:42:46;100898.00;;;32.33;nan
36980;BME280;22891;50.562;7.272;2022-07-29T11:45:20;100901.00;;;30.99;nan
36980;BME280;22891;50.562;7.272;2022-07-29T11:47:53;100899.00;;;30.90;nan
36980;BME280;22891;50.562;7.272;2022-07-29T11:51:19;100894.00;;;30.64;nan
36980;BME280;22891;50.562;7.272;2022-07-29T11:53:49;100902.00;;;30.06;nan
36980;BME280;22891;50.562;7.272;2022-07-29T11:56:17;100885.00;;;30.29;nan
36980;BME280;22891;50.562;7.272;2022-07-29T11:58:46;100896.00;;;30.09;nan
36980;BME280;22891;50.562;7.272;2022-07-29T12:01:13;100891.00;;;29.89;nan
36980;BME280;22891;50.562;7.272;2022-07-29T12:03:42;100890.00;;;29.42;nan
36980;BME280;22891;50.562;7.272;2022-07-29T12:06:12;100888.00;;;29.49;nan
36980;BME280;22891;50.562;7.272;2022-07-29T12:08:42;100890.00;;;29.95;nan
36980;BME280;22891;50.562;7.272;2022-07-29T12:11:16;100892.00;;;29.51;nan
36980;BME280;22891;50.562;7.272;2022-07-29T12:13:42;100898.00;;;29.75;nan
36980;BME280;22891;50.562;7.272;2022-07-29T12:16:08;100892.00;;;30.00;nan
36980;BME280;22891;50.562;7.272;2022-07-29T12:18:35;100883.00;;;29.61;nan
36980;BME280;22891;50.562;7.272;2022-07-29T12:21:02;100889.00;;;29.21;nan
36980;BME280;22891;50.562;7.272;2022-07-29T12:23:32;100890.00;;;29.24;nan
36980;BME280;22891;50.562;7.272;2022-07-29T12:25:59;100890.00;;;29.59;nan
36980;BME280;22891;50.562;7.272;2022-07-29T12:28:25;100893.00;;;30.37;nan
36980;BME280;22891;50.562;7.272;2022-07-29T12:30:52;100886.00;;;30.11;nan
36980;BME280;22891;50.562;7.272;2022-07-29T12:33:25;100886.00;;;29.36;nan
36980;BME280;22891;50.562;7.272;2022-07-29T12:36:00;100893.00;;;29.14;nan
36980;BME280;22891;50.562;7.272;2022-07-29T12:38:28;100895.00;;;29.30;nan
36980;BME280;22891;50.562;7.272;2022-07-29T12:40:54;100888.00;;;29.47;nan
36980;BME280;22891;50.562;7.272;2022-07-29T12:43:22;100886.00;;;30.01;nan
36980;BME280;22891;50.562;7.272;2022-07-29T12:45:50;100887.00;;;30.37;nan
36980;BME280;22891;50.562;7.272;2022-07-29T12:48:18;100884.00;;;30.63;nan
36980;BME280;22891;50.562;7.272;2022-07-29T12:51:00;100884.00;;;31.08;nan
36980;BME280;22891;50.562;7.272;2022-07-29T12:53:27;100883.00;;;30.86;nan
36980;BME280;22891;50.562;7.272;2022-07-29T12:55:55;100884.00;;;30.75;nan
36980;BME280;22891;50.562;7.272;2022-07-29T12:58:54;100876.00;;;30.51;nan
36980;BME280;22891;50.562;7.272;2022-07-29T13:01:20;100871.00;;;30.37;nan
36980;BME280;22891;50.562;7.272;2022-07-29T13:03:57;100874.00;;;30.82;nan
36980;BME280;22891;50.562;7.272;2022-07-29T13:06:44;100873.00;;;31.52;nan
36980;BME280;22891;50.562;7.272;2022-07-29T13:09:20;100874.00;;;30.99;nan
36980;BME280;22891;50.562;7.272;2022-07-29T13:11:51;100877.00;;;30.90;nan
36980;BME280;22891;50.562;7.272;2022-07-29T13:14:35;100878.00;;;30.65;nan
36980;BME280;22891;50.562;7.272;2022-07-29T13:17:22;100869.00;;;29.92;nan
36980;BME280;22891;50.562;7.272;2022-07-29T13:20:07;100875.00;;;29.81;nan
36980;BME280;22891;50.562;7.272;2022-07-29T13:22:38;100873.00;;;29.69;nan
36980;BME280;22891;50.562;7.272;2022-07-29T13:25:06;100873.00;;;29.71;nan
36980;BME280;22891;50.562;7.272;2022-07-29T13:27:34;100876.00;;;29.92;nan
36980;BME280;22891;50.562;7.272;2022-07-29T13:30:04;100879.00;;;30.35;nan
36980;BME280;22891;50.562;7.272;2022-07-29T13:32:31;100884.00;;;30.33;nan
36980;BME280;22891;50.562;7.272;2022-07-29T13:35:06;100886.00;;;30.10;nan
36980;BME280;22891;50.562;7.272;2022-07-29T13:37:34;100882.00;;;30.07;nan
36980;BME280;22891;50.562;7.272;2022-07-29T13:40:01;100883.00;;;30.01;nan
36980;BME280;22891;50.562;7.272;2022-07-29T13:42:28;100881.00;;;29.65;nan
36980;BME280;22891;50.562;7.272;2022-07-29T13:44:54;100882.00;;;29.97;nan
36980;BME280;22891;50.562;7.272;2022-07-29T13:47:21;100889.00;;;29.43;nan
36980;BME280;22891;50.562;7.272;2022-07-29T13:49:47;100891.00;;;29.44;nan
36980;BME280;22891;50.562;7.272;2022-07-29T13:52:14;100883.00;;;29.47;nan
36980;BME280;22891;50.562;7.272;2022-07-29T13:54:40;100887.00;;;29.95;nan
36980;BME280;22891;50.562;7.272;2022-07-29T13:57:06;100885.00;;;29.59;nan
36980;BME280;22891;50.562;7.272;2022-07-29T13:59:33;100891.00;;;29.61;nan